sensor_id;sensor_type;location;lat;lon;timestamp;P1;durP1;ratioP1;P2;durP2;ratioP2
24585;SDS011;12743;52.262;6.172;2023-03-01T00:01:24;9.70;;;4.80;;
24585;SDS011;12743;52.262;6.172;2023-03-01T00:03:54;10.80;;;4.70;;
24585;SDS011;12743;52.262;6.172;2023-03-01T00:06:21;11.88;;;4.75;;
24585;SDS011;12743;52.262;6.172;2023-03-01T00:08:48;9.20;;;4.85;;
24585;SDS011;12743;52.262;6.172;2023-03-01T00:11:23;9.40;;;5.10;;
24585;SDS011;12743;52.262;6.172;2023-03-01T00:13:55;8.35;;;4.45;;
24585;SDS011;12743;52.262;6.172;2023-03-01T00:16:25;9.33;;;4.63;;
24585;SDS011;12743;52.262;6.172;2023-03-01T00:18:57;9.77;;;4.75;;
24585;SDS011;12743;52.262;6.172;2023-03-01T00:21:24;9.20;;;4.78;;
24585;SDS011;12743;52.262;6.172;2023-03-01T00:23:52;10.10;;;4.93;;
24585;SDS011;12743;52.262;6.172;2023-03-01T00:26:20;9.70;;;5.18;;
24585;SDS011;12743;52.262;6.172;2023-03-01T00:28:48;10.17;;;4.87;;
24585;SDS011;12743;52.262;6.172;2023-03-01T00:31:19;9.20;;;4.38;;
24585;SDS011;12743;52.262;6.172;2023-03-01T00:33:47;8.85;;;4.32;;
24585;SDS011;12743;52.262;6.172;2023-03-01T00:36:15;8.52;;;4.03;;
24585;SDS011;12743;52.262;6.172;2023-03-01T00:38:43;10.07;;;4.60;;
24585;SDS011;12743;52.262;6.172;2023-03-01T00:41:12;9.00;;;4.60;;
24585;SDS011;12743;52.262;6.172;2023-03-01T00:43:42;13.52;;;4.80;;
24585;SDS011;12743;52.262;6.172;2023-03-01T00:46:14;9.95;;;4.53;;
24585;SDS011;12743;52.262;6.172;2023-03-01T00:48:43;10.48;;;4.82;;
24585;SDS011;12743;52.262;6.172;2023-03-01T00:51:15;9.93;;;4.75;;
24585;SDS011;12743;52.262;6.172;2023-03-01T00:53:51;9.40;;;4.07;;
24585;SDS011;12743;52.262;6.172;2023-03-01T00:56:19;9.38;;;5.32;;
24585;SDS011;12743;52.262;6.172;2023-03-01T00:58:47;10.40;;;4.95;;
24585;SDS011;12743;52.262;6.172;2023-03-01T01:01:16;9.20;;;4.38;;
24585;SDS011;12743;52.262;6.172;2023-03-01T01:03:48;9.43;;;4.60;;
24585;SDS011;12743;52.262;6.172;2023-03-01T01:06:25;11.10;;;4.50;;
24585;SDS011;12743;52.262;6.172;2023-03-01T01:08:57;10.18;;;5.15;;
24585;SDS011;12743;52.262;6.172;2023-03-01T01:11:24;11.20;;;5.15;;
24585;SDS011;12743;52.262;6.172;2023-03-01T01:13:52;9.75;;;5.10;;
24585;SDS011;12743;52.262;6.172;2023-03-01T01:16:20;11.02;;;4.60;;
24585;SDS011;12743;52.262;6.172;2023-03-01T01:18:48;12.03;;;4.23;;
24585;SDS011;12743;52.262;6.172;2023-03-01T01:21:16;9.55;;;4.45;;
24585;SDS011;12743;52.262;6.172;2023-03-01T01:23:45;11.02;;;4.80;;
24585;SDS011;12743;52.262;6.172;2023-03-01T01:26:20;9.20;;;4.47;;
24585;SDS011;12743;52.262;6.172;2023-03-01T01:28:49;8.30;;;4.43;;
24585;SDS011;12743;52.262;6.172;2023-03-01T01:31:17;11.40;;;4.93;;
24585;SDS011;12743;52.262;6.172;2023-03-01T01:33:44;9.23;;;4.72;;
24585;SDS011;12743;52.262;6.172;2023-03-01T01:36:11;13.25;;;5.10;;
24585;SDS011;12743;52.262;6.172;2023-03-01T01:38:39;12.38;;;4.88;;
24585;SDS011;12743;52.262;6.172;2023-03-01T01:41:09;11.38;;;4.65;;
24585;SDS011;12743;52.262;6.172;2023-03-01T01:43:41;8.60;;;4.40;;
24585;SDS011;12743;52.262;6.172;2023-03-01T01:46:30;9.70;;;4.65;;
24585;SDS011;12743;52.262;6.172;2023-03-01T01:51:32;10.30;;;4.47;;
24585;SDS011;12743;52.262;6.172;2023-03-01T01:54:08;9.10;;;4.63;;
24585;SDS011;12743;52.262;6.172;2023-03-01T01:56:40;12.07;;;4.83;;
24585;SDS011;12743;52.262;6.172;2023-03-01T01:59:10;9.30;;;4.63;;
24585;SDS011;12743;52.262;6.172;2023-03-01T02:01:38;11.13;;;5.00;;
24585;SDS011;12743;52.262;6.172;2023-03-01T02:04:05;9.13;;;4.65;;
24585;SDS011;12743;52.262;6.172;2023-03-01T02:06:42;9.00;;;4.40;;
24585;SDS011;12743;52.262;6.172;2023-03-01T02:09:16;9.37;;;4.67;;
24585;SDS011;12743;52.262;6.172;2023-03-01T02:11:47;11.05;;;4.53;;
24585;SDS011;12743;52.262;6.172;2023-03-01T02:14:15;9.75;;;4.40;;
24585;SDS011;12743;52.262;6.172;2023-03-01T02:16:43;10.77;;;4.70;;
24585;SDS011;12743;52.262;6.172;2023-03-01T02:19:13;10.55;;;4.60;;
24585;SDS011;12743;52.262;6.172;2023-03-01T02:22:08;11.33;;;4.90;;
24585;SDS011;12743;52.262;6.172;2023-03-01T02:27:11;11.48;;;5.18;;
24585;SDS011;12743;52.262;6.172;2023-03-01T02:29:38;12.32;;;5.25;;
24585;SDS011;12743;52.262;6.172;2023-03-01T02:32:05;10.40;;;5.07;;
24585;SDS011;12743;52.262;6.172;2023-03-01T02:34:33;10.30;;;4.63;;
24585;SDS011;12743;52.262;6.172;2023-03-01T02:37:01;10.88;;;5.07;;
24585;SDS011;12743;52.262;6.172;2023-03-01T02:39:45;11.00;;;4.47;;
24585;SDS011;12743;52.262;6.172;2023-03-01T02:42:23;11.95;;;4.78;;
24585;SDS011;12743;52.262;6.172;2023-03-01T02:44:54;8.23;;;4.63;;
24585;SDS011;12743;52.262;6.172;2023-03-01T02:47:21;10.70;;;4.93;;
24585;SDS011;12743;52.262;6.172;2023-03-01T02:49:49;9.32;;;4.68;;
24585;SDS011;12743;52.262;6.172;2023-03-01T02:55:20;11.10;;;5.15;;
24585;SDS011;12743;52.262;6.172;2023-03-01T02:57:47;11.85;;;5.28;;
24585;SDS011;12743;52.262;6.172;2023-03-01T03:00:20;10.00;;;4.63;;
24585;SDS011;12743;52.262;6.172;2023-03-01T03:02:51;10.23;;;5.40;;
24585;SDS011;12743;52.262;6.172;2023-03-01T03:05:26;11.88;;;5.53;;
24585;SDS011;12743;52.262;6.172;2023-03-01T03:07:57;12.88;;;5.43;;
24585;SDS011;12743;52.262;6.172;2023-03-01T03:10:26;10.70;;;5.38;;
24585;SDS011;12743;52.262;6.172;2023-03-01T03:13:00;10.20;;;4.43;;
24585;SDS011;12743;52.262;6.172;2023-03-01T03:15:31;9.68;;;4.65;;
24585;SDS011;12743;52.262;6.172;2023-03-01T03:18:03;13.73;;;5.30;;
24585;SDS011;12743;52.262;6.172;2023-03-01T03:20:31;10.63;;;5.05;;
24585;SDS011;12743;52.262;6.172;2023-03-01T03:22:59;10.00;;;5.00;;
24585;SDS011;12743;52.262;6.172;2023-03-01T03:25:27;11.80;;;5.23;;
24585;SDS011;12743;52.262;6.172;2023-03-01T03:27:54;10.23;;;5.00;;
24585;SDS011;12743;52.262;6.172;2023-03-01T03:30:26;11.57;;;4.90;;
24585;SDS011;12743;52.262;6.172;2023-03-01T03:32:57;11.43;;;5.20;;
24585;SDS011;12743;52.262;6.172;2023-03-01T03:35:27;9.82;;;4.88;;
24585;SDS011;12743;52.262;6.172;2023-03-01T03:38:11;11.20;;;5.03;;
24585;SDS011;12743;52.262;6.172;2023-03-01T03:40:49;10.32;;;5.03;;
24585;SDS011;12743;52.262;6.172;2023-03-01T03:43:31;10.02;;;4.88;;
24585;SDS011;12743;52.262;6.172;2023-03-01T03:45:59;9.05;;;4.65;;
24585;SDS011;12743;52.262;6.172;2023-03-01T03:48:26;13.00;;;5.15;;
24585;SDS011;12743;52.262;6.172;2023-03-01T03:50:54;10.10;;;4.83;;
24585;SDS011;12743;52.262;6.172;2023-03-01T03:53:22;11.02;;;5.00;;
24585;SDS011;12743;52.262;6.172;2023-03-01T03:55:50;11.13;;;5.18;;
24585;SDS011;12743;52.262;6.172;2023-03-01T03:58:18;11.13;;;5.00;;
24585;SDS011;12743;52.262;6.172;2023-03-01T04:00:47;10.65;;;5.18;;
24585;SDS011;12743;52.262;6.172;2023-03-01T04:03:15;10.27;;;5.50;;
24585;SDS011;12743;52.262;6.172;2023-03-01T04:05:43;11.95;;;5.55;;
24585;SDS011;12743;52.262;6.172;2023-03-01T04:08:09;12.43;;;5.30;;
24585;SDS011;12743;52.262;6.172;2023-03-01T04:10:37;10.45;;;4.93;;
24585;SDS011;12743;52.262;6.172;2023-03-01T04:13:09;10.95;;;5.38;;
24585;SDS011;12743;52.262;6.172;2023-03-01T04:15:38;9.47;;;4.60;;
24585;SDS011;12743;52.262;6.172;2023-03-01T04:18:06;11.88;;;5.70;;
24585;SDS011;12743;52.262;6.172;2023-03-01T04:20:34;9.82;;;4.75;;
24585;SDS011;12743;52.262;6.172;2023-03-01T04:23:06;12.43;;;5.13;;
24585;SDS011;12743;52.262;6.172;2023-03-01T04:25:40;9.57;;;4.95;;
24585;SDS011;12743;52.262;6.172;2023-03-01T04:28:28;11.07;;;5.97;;
24585;SDS011;12743;52.262;6.172;2023-03-01T04:30:56;11.52;;;5.05;;
24585;SDS011;12743;52.262;6.172;2023-03-01T04:33:25;13.38;;;5.65;;
24585;SDS011;12743;52.262;6.172;2023-03-01T04:35:52;11.30;;;5.35;;
24585;SDS011;12743;52.262;6.172;2023-03-01T04:38:19;11.15;;;5.60;;
24585;SDS011;12743;52.262;6.172;2023-03-01T04:40:47;11.77;;;5.40;;
24585;SDS011;12743;52.262;6.172;2023-03-01T04:43:14;10.50;;;4.97;;
24585;SDS011;12743;52.262;6.172;2023-03-01T04:45:41;12.25;;;5.55;;
24585;SDS011;12743;52.262;6.172;2023-03-01T04:48:08;11.68;;;5.50;;
24585;SDS011;12743;52.262;6.172;2023-03-01T04:50:35;12.00;;;5.57;;
24585;SDS011;12743;52.262;6.172;2023-03-01T04:53:02;12.47;;;5.60;;
24585;SDS011;12743;52.262;6.172;2023-03-01T04:55:29;11.80;;;5.25;;
24585;SDS011;12743;52.262;6.172;2023-03-01T04:57:56;10.13;;;5.13;;
24585;SDS011;12743;52.262;6.172;2023-03-01T05:00:30;9.07;;;4.63;;
24585;SDS011;12743;52.262;6.172;2023-03-01T05:02:59;12.02;;;5.60;;
24585;SDS011;12743;52.262;6.172;2023-03-01T05:05:27;11.43;;;5.47;;
24585;SDS011;12743;52.262;6.172;2023-03-01T05:07:57;12.82;;;5.43;;
24585;SDS011;12743;52.262;6.172;2023-03-01T05:10:26;11.82;;;5.38;;
24585;SDS011;12743;52.262;6.172;2023-03-01T05:12:58;11.00;;;5.45;;
24585;SDS011;12743;52.262;6.172;2023-03-01T05:15:26;15.57;;;5.68;;
24585;SDS011;12743;52.262;6.172;2023-03-01T05:17:55;10.13;;;5.10;;
24585;SDS011;12743;52.262;6.172;2023-03-01T05:20:28;10.40;;;5.38;;
24585;SDS011;12743;52.262;6.172;2023-03-01T05:22:57;11.27;;;5.40;;
24585;SDS011;12743;52.262;6.172;2023-03-01T05:25:25;11.02;;;5.35;;
24585;SDS011;12743;52.262;6.172;2023-03-01T05:27:52;11.48;;;5.00;;
24585;SDS011;12743;52.262;6.172;2023-03-01T05:30:19;10.47;;;5.17;;
24585;SDS011;12743;52.262;6.172;2023-03-01T05:32:53;11.90;;;5.93;;
24585;SDS011;12743;52.262;6.172;2023-03-01T05:35:22;9.93;;;5.20;;
24585;SDS011;12743;52.262;6.172;2023-03-01T05:37:49;11.50;;;5.70;;
24585;SDS011;12743;52.262;6.172;2023-03-01T05:40:18;14.32;;;5.95;;
24585;SDS011;12743;52.262;6.172;2023-03-01T05:42:47;12.80;;;5.87;;
24585;SDS011;12743;52.262;6.172;2023-03-01T05:45:16;11.23;;;5.32;;
24585;SDS011;12743;52.262;6.172;2023-03-01T05:47:44;14.90;;;6.28;;
24585;SDS011;12743;52.262;6.172;2023-03-01T05:50:16;12.98;;;5.68;;
24585;SDS011;12743;52.262;6.172;2023-03-01T05:52:48;12.23;;;5.40;;
24585;SDS011;12743;52.262;6.172;2023-03-01T05:55:25;11.33;;;5.33;;
24585;SDS011;12743;52.262;6.172;2023-03-01T05:58:03;15.25;;;5.93;;
24585;SDS011;12743;52.262;6.172;2023-03-01T06:00:34;13.32;;;6.07;;
24585;SDS011;12743;52.262;6.172;2023-03-01T06:03:01;14.55;;;6.22;;
24585;SDS011;12743;52.262;6.172;2023-03-01T06:05:28;11.63;;;5.70;;
24585;SDS011;12743;52.262;6.172;2023-03-01T06:07:58;12.70;;;5.37;;
24585;SDS011;12743;52.262;6.172;2023-03-01T06:10:26;10.10;;;5.10;;
24585;SDS011;12743;52.262;6.172;2023-03-01T06:12:53;12.85;;;5.07;;
24585;SDS011;12743;52.262;6.172;2023-03-01T06:15:20;12.02;;;5.90;;
24585;SDS011;12743;52.262;6.172;2023-03-01T06:17:48;11.90;;;5.95;;
24585;SDS011;12743;52.262;6.172;2023-03-01T06:20:19;12.07;;;5.90;;
24585;SDS011;12743;52.262;6.172;2023-03-01T06:22:48;14.05;;;6.05;;
24585;SDS011;12743;52.262;6.172;2023-03-01T06:25:19;13.00;;;6.00;;
24585;SDS011;12743;52.262;6.172;2023-03-01T06:27:47;15.27;;;6.82;;
24585;SDS011;12743;52.262;6.172;2023-03-01T06:30:15;12.63;;;5.97;;
24585;SDS011;12743;52.262;6.172;2023-03-01T06:32:43;12.13;;;6.20;;
24585;SDS011;12743;52.262;6.172;2023-03-01T06:35:11;14.02;;;6.70;;
24585;SDS011;12743;52.262;6.172;2023-03-01T06:37:49;12.05;;;5.97;;
24585;SDS011;12743;52.262;6.172;2023-03-01T06:40:17;12.90;;;6.28;;
24585;SDS011;12743;52.262;6.172;2023-03-01T06:42:47;12.82;;;5.80;;
24585;SDS011;12743;52.262;6.172;2023-03-01T06:45:17;11.60;;;6.10;;
24585;SDS011;12743;52.262;6.172;2023-03-01T06:47:45;12.40;;;6.03;;
24585;SDS011;12743;52.262;6.172;2023-03-01T06:50:20;13.45;;;6.20;;
24585;SDS011;12743;52.262;6.172;2023-03-01T06:52:47;20.23;;;6.28;;
24585;SDS011;12743;52.262;6.172;2023-03-01T06:55:13;16.75;;;7.65;;
24585;SDS011;12743;52.262;6.172;2023-03-01T06:57:48;12.30;;;5.70;;
24585;SDS011;12743;52.262;6.172;2023-03-01T07:00:15;13.00;;;7.07;;
24585;SDS011;12743;52.262;6.172;2023-03-01T07:02:42;15.00;;;6.60;;
24585;SDS011;12743;52.262;6.172;2023-03-01T07:05:09;12.35;;;6.20;;
24585;SDS011;12743;52.262;6.172;2023-03-01T07:07:36;13.55;;;6.82;;
24585;SDS011;12743;52.262;6.172;2023-03-01T07:10:02;11.88;;;6.43;;
24585;SDS011;12743;52.262;6.172;2023-03-01T07:12:29;18.52;;;7.60;;
24585;SDS011;12743;52.262;6.172;2023-03-01T07:14:56;13.70;;;6.18;;
24585;SDS011;12743;52.262;6.172;2023-03-01T07:17:23;17.02;;;6.78;;
24585;SDS011;12743;52.262;6.172;2023-03-01T07:19:50;13.20;;;6.82;;
24585;SDS011;12743;52.262;6.172;2023-03-01T07:22:16;14.25;;;6.88;;
24585;SDS011;12743;52.262;6.172;2023-03-01T07:24:43;16.13;;;6.80;;
24585;SDS011;12743;52.262;6.172;2023-03-01T07:27:10;14.43;;;6.72;;
24585;SDS011;12743;52.262;6.172;2023-03-01T07:29:37;15.00;;;6.88;;
24585;SDS011;12743;52.262;6.172;2023-03-01T07:32:04;14.48;;;6.75;;
24585;SDS011;12743;52.262;6.172;2023-03-01T07:34:31;15.88;;;7.00;;
24585;SDS011;12743;52.262;6.172;2023-03-01T07:36:58;17.60;;;7.43;;
24585;SDS011;12743;52.262;6.172;2023-03-01T07:39:25;17.45;;;7.38;;
24585;SDS011;12743;52.262;6.172;2023-03-01T07:41:52;18.15;;;7.90;;
24585;SDS011;12743;52.262;6.172;2023-03-01T07:44:21;16.17;;;7.78;;
24585;SDS011;12743;52.262;6.172;2023-03-01T07:46:47;17.63;;;8.15;;
24585;SDS011;12743;52.262;6.172;2023-03-01T07:49:20;18.58;;;7.53;;
24585;SDS011;12743;52.262;6.172;2023-03-01T07:51:47;14.60;;;7.63;;
24585;SDS011;12743;52.262;6.172;2023-03-01T07:54:13;14.00;;;7.32;;
24585;SDS011;12743;52.262;6.172;2023-03-01T07:56:40;15.35;;;7.35;;
24585;SDS011;12743;52.262;6.172;2023-03-01T07:59:07;14.40;;;7.25;;
24585;SDS011;12743;52.262;6.172;2023-03-01T08:01:34;19.00;;;8.15;;
24585;SDS011;12743;52.262;6.172;2023-03-01T08:04:02;15.50;;;7.22;;
24585;SDS011;12743;52.262;6.172;2023-03-01T08:06:34;12.68;;;7.07;;
24585;SDS011;12743;52.262;6.172;2023-03-01T08:09:02;14.23;;;6.85;;
24585;SDS011;12743;52.262;6.172;2023-03-01T08:11:29;13.43;;;7.25;;
24585;SDS011;12743;52.262;6.172;2023-03-01T08:13:56;12.13;;;6.30;;
24585;SDS011;12743;52.262;6.172;2023-03-01T08:16:24;15.23;;;6.80;;
24585;SDS011;12743;52.262;6.172;2023-03-01T08:18:54;13.00;;;6.38;;
24585;SDS011;12743;52.262;6.172;2023-03-01T08:21:22;14.80;;;6.80;;
24585;SDS011;12743;52.262;6.172;2023-03-01T08:23:49;15.10;;;6.35;;
24585;SDS011;12743;52.262;6.172;2023-03-01T08:26:17;11.93;;;6.28;;
24585;SDS011;12743;52.262;6.172;2023-03-01T08:28:46;14.80;;;6.80;;
24585;SDS011;12743;52.262;6.172;2023-03-01T08:33:46;11.70;;;6.00;;
24585;SDS011;12743;52.262;6.172;2023-03-01T08:36:25;13.02;;;6.43;;
24585;SDS011;12743;52.262;6.172;2023-03-01T08:38:53;12.65;;;6.43;;
24585;SDS011;12743;52.262;6.172;2023-03-01T08:41:21;11.18;;;5.90;;
24585;SDS011;12743;52.262;6.172;2023-03-01T08:43:48;10.23;;;5.28;;
24585;SDS011;12743;52.262;6.172;2023-03-01T08:46:15;12.73;;;5.35;;
24585;SDS011;12743;52.262;6.172;2023-03-01T08:48:45;12.25;;;5.35;;
24585;SDS011;12743;52.262;6.172;2023-03-01T08:51:14;12.23;;;5.05;;
24585;SDS011;12743;52.262;6.172;2023-03-01T08:53:43;11.57;;;5.63;;
24585;SDS011;12743;52.262;6.172;2023-03-01T08:56:10;14.90;;;5.57;;
24585;SDS011;12743;52.262;6.172;2023-03-01T08:58:37;12.93;;;5.85;;
24585;SDS011;12743;52.262;6.172;2023-03-01T09:01:07;12.27;;;5.28;;
24585;SDS011;12743;52.262;6.172;2023-03-01T09:03:41;11.05;;;5.57;;
24585;SDS011;12743;52.262;6.172;2023-03-01T09:06:17;9.73;;;4.82;;
24585;SDS011;12743;52.262;6.172;2023-03-01T09:08:54;10.57;;;5.57;;
24585;SDS011;12743;52.262;6.172;2023-03-01T09:11:21;10.55;;;5.43;;
24585;SDS011;12743;52.262;6.172;2023-03-01T09:13:49;10.98;;;4.78;;
24585;SDS011;12743;52.262;6.172;2023-03-01T09:16:29;10.75;;;4.85;;
24585;SDS011;12743;52.262;6.172;2023-03-01T09:19:00;10.25;;;4.80;;
24585;SDS011;12743;52.262;6.172;2023-03-01T09:21:27;9.27;;;4.53;;
24585;SDS011;12743;52.262;6.172;2023-03-01T09:24:07;9.82;;;4.15;;
24585;SDS011;12743;52.262;6.172;2023-03-01T09:26:40;9.77;;;4.70;;
24585;SDS011;12743;52.262;6.172;2023-03-01T09:29:06;8.25;;;4.05;;
24585;SDS011;12743;52.262;6.172;2023-03-01T09:31:35;9.75;;;4.70;;
24585;SDS011;12743;52.262;6.172;2023-03-01T09:34:02;9.80;;;3.97;;
24585;SDS011;12743;52.262;6.172;2023-03-01T09:36:29;8.65;;;3.95;;
24585;SDS011;12743;52.262;6.172;2023-03-01T09:38:57;8.88;;;3.78;;
24585;SDS011;12743;52.262;6.172;2023-03-01T09:46:59;8.32;;;3.85;;
24585;SDS011;12743;52.262;6.172;2023-03-01T09:51:56;8.57;;;3.30;;
24585;SDS011;12743;52.262;6.172;2023-03-01T09:54:23;7.78;;;3.17;;
24585;SDS011;12743;52.262;6.172;2023-03-01T10:02:26;8.32;;;3.15;;
24585;SDS011;12743;52.262;6.172;2023-03-01T10:05:05;8.65;;;3.47;;
24585;SDS011;12743;52.262;6.172;2023-03-01T10:10:55;8.45;;;2.30;;
24585;SDS011;12743;52.262;6.172;2023-03-01T10:13:28;8.52;;;2.30;;
24585;SDS011;12743;52.262;6.172;2023-03-01T10:16:22;8.27;;;2.60;;
24585;SDS011;12743;52.262;6.172;2023-03-01T10:18:58;7.07;;;2.47;;
24585;SDS011;12743;52.262;6.172;2023-03-01T10:21:26;5.30;;;2.03;;
24585;SDS011;12743;52.262;6.172;2023-03-01T10:23:59;7.65;;;2.50;;
24585;SDS011;12743;52.262;6.172;2023-03-01T10:26:44;8.68;;;3.17;;
24585;SDS011;12743;52.262;6.172;2023-03-01T10:29:17;8.55;;;3.25;;
24585;SDS011;12743;52.262;6.172;2023-03-01T10:31:51;7.53;;;2.60;;
24585;SDS011;12743;52.262;6.172;2023-03-01T10:34:27;6.80;;;2.65;;
24585;SDS011;12743;52.262;6.172;2023-03-01T10:36:57;6.50;;;3.08;;
24585;SDS011;12743;52.262;6.172;2023-03-01T10:39:34;8.68;;;3.10;;
24585;SDS011;12743;52.262;6.172;2023-03-01T10:42:05;7.88;;;2.95;;
24585;SDS011;12743;52.262;6.172;2023-03-01T10:44:46;8.10;;;3.10;;
24585;SDS011;12743;52.262;6.172;2023-03-01T10:49:56;6.85;;;3.00;;
24585;SDS011;12743;52.262;6.172;2023-03-01T10:52:32;7.18;;;2.70;;
24585;SDS011;12743;52.262;6.172;2023-03-01T10:57:39;5.80;;;1.90;;
24585;SDS011;12743;52.262;6.172;2023-03-01T11:00:19;7.85;;;2.65;;
24585;SDS011;12743;52.262;6.172;2023-03-01T11:02:47;6.30;;;2.42;;
24585;SDS011;12743;52.262;6.172;2023-03-01T11:05:17;5.53;;;2.17;;
24585;SDS011;12743;52.262;6.172;2023-03-01T11:08:13;5.50;;;1.85;;
24585;SDS011;12743;52.262;6.172;2023-03-01T11:10:40;5.50;;;1.80;;
24585;SDS011;12743;52.262;6.172;2023-03-01T11:16:03;6.70;;;1.90;;
24585;SDS011;12743;52.262;6.172;2023-03-01T11:18:33;7.53;;;1.95;;
24585;SDS011;12743;52.262;6.172;2023-03-01T11:21:14;5.88;;;2.00;;
24585;SDS011;12743;52.262;6.172;2023-03-01T11:23:41;5.77;;;2.10;;
24585;SDS011;12743;52.262;6.172;2023-03-01T11:26:09;5.75;;;2.20;;
24585;SDS011;12743;52.262;6.172;2023-03-01T11:28:38;6.22;;;2.30;;
24585;SDS011;12743;52.262;6.172;2023-03-01T11:31:08;5.10;;;1.80;;
24585;SDS011;12743;52.262;6.172;2023-03-01T11:39:18;4.97;;;1.92;;
24585;SDS011;12743;52.262;6.172;2023-03-01T11:42:02;6.60;;;1.92;;
24585;SDS011;12743;52.262;6.172;2023-03-01T11:44:44;6.30;;;2.05;;
24585;SDS011;12743;52.262;6.172;2023-03-01T11:50:11;5.30;;;1.90;;
24585;SDS011;12743;52.262;6.172;2023-03-01T11:55:46;5.22;;;1.88;;
24585;SDS011;12743;52.262;6.172;2023-03-01T12:06:46;6.25;;;1.95;;
24585;SDS011;12743;52.262;6.172;2023-03-01T12:09:42;6.32;;;2.17;;
24585;SDS011;12743;52.262;6.172;2023-03-01T12:12:17;4.97;;;1.58;;
24585;SDS011;12743;52.262;6.172;2023-03-01T12:18:09;7.83;;;2.00;;
24585;SDS011;12743;52.262;6.172;2023-03-01T12:32:34;5.47;;;2.10;;
24585;SDS011;12743;52.262;6.172;2023-03-01T12:38:12;5.53;;;1.60;;
24585;SDS011;12743;52.262;6.172;2023-03-01T12:41:00;5.60;;;2.00;;
24585;SDS011;12743;52.262;6.172;2023-03-01T12:46:25;5.70;;;2.10;;
24585;SDS011;12743;52.262;6.172;2023-03-01T12:49:15;4.88;;;1.80;;
24585;SDS011;12743;52.262;6.172;2023-03-01T12:51:54;6.78;;;2.05;;
24585;SDS011;12743;52.262;6.172;2023-03-01T12:54:31;5.13;;;1.80;;
24585;SDS011;12743;52.262;6.172;2023-03-01T12:57:16;5.68;;;1.70;;
24585;SDS011;12743;52.262;6.172;2023-03-01T13:00:15;5.10;;;1.77;;
24585;SDS011;12743;52.262;6.172;2023-03-01T13:08:27;5.80;;;2.03;;
24585;SDS011;12743;52.262;6.172;2023-03-01T13:10:58;5.63;;;1.90;;
24585;SDS011;12743;52.262;6.172;2023-03-01T13:13:29;3.87;;;1.30;;
24585;SDS011;12743;52.262;6.172;2023-03-01T13:16:19;4.78;;;1.50;;
24585;SDS011;12743;52.262;6.172;2023-03-01T13:19:09;5.63;;;1.80;;
24585;SDS011;12743;52.262;6.172;2023-03-01T13:21:50;6.18;;;1.90;;
24585;SDS011;12743;52.262;6.172;2023-03-01T13:24:24;5.50;;;1.85;;
24585;SDS011;12743;52.262;6.172;2023-03-01T13:27:09;7.93;;;1.67;;
24585;SDS011;12743;52.262;6.172;2023-03-01T13:29:49;4.80;;;1.45;;
24585;SDS011;12743;52.262;6.172;2023-03-01T13:32:24;6.40;;;1.70;;
24585;SDS011;12743;52.262;6.172;2023-03-01T13:37:37;6.32;;;1.88;;
24585;SDS011;12743;52.262;6.172;2023-03-01T13:40:05;4.67;;;1.80;;
24585;SDS011;12743;52.262;6.172;2023-03-01T13:42:52;5.70;;;1.80;;
24585;SDS011;12743;52.262;6.172;2023-03-01T13:48:03;6.15;;;1.90;;
24585;SDS011;12743;52.262;6.172;2023-03-01T13:50:38;5.05;;;2.03;;
24585;SDS011;12743;52.262;6.172;2023-03-01T13:53:18;5.63;;;2.10;;
24585;SDS011;12743;52.262;6.172;2023-03-01T13:55:51;5.57;;;1.50;;
24585;SDS011;12743;52.262;6.172;2023-03-01T13:58:26;5.28;;;1.63;;
24585;SDS011;12743;52.262;6.172;2023-03-01T14:00:55;6.43;;;1.40;;
24585;SDS011;12743;52.262;6.172;2023-03-01T14:03:24;5.05;;;1.65;;
24585;SDS011;12743;52.262;6.172;2023-03-01T14:06:12;5.40;;;1.80;;
24585;SDS011;12743;52.262;6.172;2023-03-01T14:08:46;4.80;;;1.90;;
24585;SDS011;12743;52.262;6.172;2023-03-01T14:16:41;6.57;;;2.60;;
24585;SDS011;12743;52.262;6.172;2023-03-01T14:19:35;5.67;;;2.37;;
24585;SDS011;12743;52.262;6.172;2023-03-01T14:27:34;5.95;;;1.90;;
24585;SDS011;12743;52.262;6.172;2023-03-01T14:30:25;5.53;;;2.13;;
24585;SDS011;12743;52.262;6.172;2023-03-01T14:32:58;6.33;;;2.27;;
24585;SDS011;12743;52.262;6.172;2023-03-01T14:35:30;6.13;;;2.17;;
24585;SDS011;12743;52.262;6.172;2023-03-01T14:37:58;6.07;;;2.38;;
24585;SDS011;12743;52.262;6.172;2023-03-01T14:40:33;9.43;;;2.67;;
24585;SDS011;12743;52.262;6.172;2023-03-01T14:43:08;7.40;;;2.80;;
24585;SDS011;12743;52.262;6.172;2023-03-01T14:45:36;7.00;;;2.40;;
24585;SDS011;12743;52.262;6.172;2023-03-01T14:48:04;7.28;;;2.80;;
24585;SDS011;12743;52.262;6.172;2023-03-01T14:50:40;9.15;;;2.22;;
24585;SDS011;12743;52.262;6.172;2023-03-01T14:53:15;5.68;;;2.22;;
24585;SDS011;12743;52.262;6.172;2023-03-01T14:55:46;6.13;;;1.98;;
24585;SDS011;12743;52.262;6.172;2023-03-01T14:58:19;6.43;;;2.20;;
24585;SDS011;12743;52.262;6.172;2023-03-01T15:01:00;6.30;;;2.22;;
24585;SDS011;12743;52.262;6.172;2023-03-01T15:03:31;6.30;;;1.98;;
24585;SDS011;12743;52.262;6.172;2023-03-01T15:06:01;5.95;;;2.30;;
24585;SDS011;12743;52.262;6.172;2023-03-01T15:08:32;6.18;;;2.42;;
24585;SDS011;12743;52.262;6.172;2023-03-01T15:13:40;5.93;;;2.10;;
24585;SDS011;12743;52.262;6.172;2023-03-01T15:16:14;5.75;;;2.45;;
24585;SDS011;12743;52.262;6.172;2023-03-01T15:18:50;6.13;;;2.08;;
24585;SDS011;12743;52.262;6.172;2023-03-01T15:23:57;6.77;;;2.20;;
24585;SDS011;12743;52.262;6.172;2023-03-01T15:26:50;8.57;;;3.03;;
24585;SDS011;12743;52.262;6.172;2023-03-01T15:29:33;7.45;;;2.70;;
24585;SDS011;12743;52.262;6.172;2023-03-01T15:32:22;5.13;;;1.90;;
24585;SDS011;12743;52.262;6.172;2023-03-01T15:34:51;6.38;;;2.13;;
24585;SDS011;12743;52.262;6.172;2023-03-01T15:40:23;9.40;;;2.40;;
24585;SDS011;12743;52.262;6.172;2023-03-01T15:42:58;6.40;;;2.22;;
24585;SDS011;12743;52.262;6.172;2023-03-01T15:45:30;5.45;;;2.03;;
24585;SDS011;12743;52.262;6.172;2023-03-01T15:48:04;6.45;;;2.65;;
24585;SDS011;12743;52.262;6.172;2023-03-01T15:50:40;8.10;;;2.23;;
24585;SDS011;12743;52.262;6.172;2023-03-01T15:53:13;6.28;;;2.10;;
24585;SDS011;12743;52.262;6.172;2023-03-01T15:55:41;5.97;;;2.10;;
24585;SDS011;12743;52.262;6.172;2023-03-01T15:58:18;5.13;;;2.00;;
24585;SDS011;12743;52.262;6.172;2023-03-01T16:00:47;5.70;;;2.00;;
24585;SDS011;12743;52.262;6.172;2023-03-01T16:03:26;5.13;;;1.67;;
24585;SDS011;12743;52.262;6.172;2023-03-01T16:05:53;5.45;;;1.88;;
24585;SDS011;12743;52.262;6.172;2023-03-01T16:08:20;5.70;;;2.00;;
24585;SDS011;12743;52.262;6.172;2023-03-01T16:10:48;6.00;;;2.10;;
24585;SDS011;12743;52.262;6.172;2023-03-01T16:13:16;7.57;;;2.08;;
24585;SDS011;12743;52.262;6.172;2023-03-01T16:15:47;5.87;;;2.10;;
24585;SDS011;12743;52.262;6.172;2023-03-01T16:18:14;6.40;;;2.13;;
24585;SDS011;12743;52.262;6.172;2023-03-01T16:20:41;4.97;;;2.03;;
24585;SDS011;12743;52.262;6.172;2023-03-01T16:23:08;7.60;;;2.30;;
24585;SDS011;12743;52.262;6.172;2023-03-01T16:25:37;6.55;;;2.10;;
24585;SDS011;12743;52.262;6.172;2023-03-01T16:28:04;7.03;;;2.40;;
24585;SDS011;12743;52.262;6.172;2023-03-01T16:30:36;6.25;;;2.20;;
24585;SDS011;12743;52.262;6.172;2023-03-01T16:33:05;6.68;;;1.98;;
24585;SDS011;12743;52.262;6.172;2023-03-01T16:35:53;8.50;;;2.47;;
24585;SDS011;12743;52.262;6.172;2023-03-01T16:38:20;5.85;;;2.30;;
24585;SDS011;12743;52.262;6.172;2023-03-01T16:40:47;4.90;;;2.10;;
24585;SDS011;12743;52.262;6.172;2023-03-01T16:43:15;5.45;;;2.28;;
24585;SDS011;12743;52.262;6.172;2023-03-01T16:45:42;5.13;;;1.80;;
24585;SDS011;12743;52.262;6.172;2023-03-01T16:48:11;7.53;;;2.47;;
24585;SDS011;12743;52.262;6.172;2023-03-01T16:50:38;6.22;;;2.30;;
24585;SDS011;12743;52.262;6.172;2023-03-01T16:53:05;5.97;;;2.33;;